Time;durP1;ratioP1;P1;durP2;ratioP2;P2;SDS_P1;SDS_P2;PMS_P1;PMS_P2;Temp;Humidity;BMP_temperature;BMP_pressure;BME280_temperature;BME280_humidity;BME280_pressure;Samples;Min_cycle;Max_cycle;Signal;HPM_P1;HPM_P2
2021/12/31 00:01:44;;;;;;;15.05;9.93;;;12.00;99.90;;;;;;5067524;28;20032;-69
2021/12/31 00:04:10;;;;;;;18.27;11.10;;;11.90;99.90;;;;;;5067505;28;20127;-69
2021/12/31 00:06:36;;;;;;;15.43;10.43;;;11.90;99.90;;;;;;5066398;28;20558;-69
2021/12/31 00:09:03;;;;;;;14.98;9.73;;;11.90;99.90;;;;;;5070017;28;20430;-69
2021/12/31 00:11:29;;;;;;;18.67;12.55;;;11.90;99.90;;;;;;5069225;28;20031;-69
2021/12/31 00:13:55;;;;;;;20.50;13.18;;;12.00;99.90;;;;;;5049816;28;20044;-69
2021/12/31 00:16:20;;;;;;;19.90;12.23;;;11.90;99.90;;;;;;5067494;28;20506;-69
2021/12/31 00:18:46;;;;;;;19.67;11.63;;;11.90;99.90;;;;;;5067076;28;20028;-69
2021/12/31 00:21:12;;;;;;;21.17;12.25;;;11.90;99.90;;;;;;5068771;28;20078;-68
2021/12/31 00:23:38;;;;;;;18.55;12.00;;;11.80;99.90;;;;;;5051535;28;20094;-69
2021/12/31 00:26:03;;;;;;;17.55;10.82;;;11.80;99.90;;;;;;5067042;28;20043;-69
2021/12/31 00:28:29;;;;;;;17.60;10.77;;;11.80;99.90;;;;;;5067447;28;20047;-70
2021/12/31 00:30:55;;;;;;;16.15;10.68;;;11.70;99.90;;;;;;5066983;28;20420;-69
2021/12/31 00:33:22;;;;;;;14.65;9.95;;;11.70;99.90;;;;;;5067358;28;20037;-68
2021/12/31 00:35:49;;;;;;;13.48;9.27;;;11.70;99.90;;;;;;5052309;28;20055;-69
2021/12/31 00:38:15;;;;;;;13.55;9.73;;;11.70;99.90;;;;;;5066350;28;20037;-69
2021/12/31 00:40:41;;;;;;;13.10;9.38;;;11.70;99.90;;;;;;5066558;28;20532;-69
2021/12/31 00:43:06;;;;;;;13.25;8.60;;;11.80;99.90;;;;;;5066833;28;20036;-69
2021/12/31 00:45:36;;;;;;;13.45;7.75;;;11.70;99.90;;;;;;5066306;28;20441;-69
2021/12/31 00:48:03;;;;;;;11.10;6.85;;;11.70;99.90;;;;;;5066163;28;20036;-69
2021/12/31 00:50:29;;;;;;;11.95;6.20;;;11.80;99.90;;;;;;5068022;28;20410;-68
2021/12/31 00:52:55;;;;;;;10.63;6.05;;;11.90;99.90;;;;;;5066748;28;20039;-69
2021/12/31 00:55:20;;;;;;;9.25;5.60;;;11.90;99.90;;;;;;5049881;28;20032;-69
2021/12/31 00:57:48;;;;;;;8.98;5.63;;;12.00;99.90;;;;;;5065986;28;20033;-69
2021/12/31 01:00:15;;;;;;;10.30;5.80;;;12.00;99.90;;;;;;5062064;28;20053;-69
2021/12/31 01:02:43;;;;;;;8.80;5.68;;;12.10;99.90;;;;;;5071241;28;20028;-69
2021/12/31 01:05:11;;;;;;;10.63;5.50;;;12.10;99.90;;;;;;5046785;28;20036;-69
2021/12/31 01:07:37;;;;;;;8.52;5.60;;;12.10;99.90;;;;;;5069616;28;20039;-68
2021/12/31 01:10:04;;;;;;;10.52;5.32;;;12.10;99.90;;;;;;5069710;28;20103;-69
2021/12/31 01:12:30;;;;;;;11.82;5.32;;;12.20;99.90;;;;;;5069685;28;20067;-69
2021/12/31 01:15:02;;;;;;;9.43;5.50;;;12.20;99.90;;;;;;5037824;28;20107;-69
2021/12/31 01:20:06;;;;;;;10.00;6.32;;;12.20;99.90;;;;;;5067447;28;20044;-69
2021/12/31 01:22:33;;;;;;;10.43;5.78;;;12.20;99.90;;;;;;5069392;28;20040;-69
2021/12/31 01:25:00;;;;;;;10.65;5.50;;;12.20;99.90;;;;;;5069667;28;20399;-70
2021/12/31 01:27:26;;;;;;;10.00;5.60;;;12.20;99.90;;;;;;5051775;28;20115;-69
2021/12/31 01:29:52;;;;;;;10.90;5.65;;;12.30;99.90;;;;;;5073219;28;20099;-69
2021/12/31 01:32:18;;;;;;;9.85;6.00;;;12.40;99.90;;;;;;5069309;28;20043;-69
2021/12/31 01:34:44;;;;;;;9.93;5.80;;;12.40;99.90;;;;;;5068532;28;20028;-70
2021/12/31 01:37:10;;;;;;;11.02;5.20;;;12.40;99.90;;;;;;5069344;28;20044;-69
2021/12/31 01:39:36;;;;;;;8.82;5.15;;;12.40;99.90;;;;;;5069666;28;20043;-69
2021/12/31 01:42:06;;;;;;;14.02;8.30;;;12.40;99.90;;;;;;5071389;28;20021;-69
2021/12/31 01:44:38;;;;;;;14.75;9.57;;;12.00;99.90;;;;;;5070657;28;20115;-70
2021/12/31 01:47:12;;;;;;;18.95;11.57;;;11.70;99.90;;;;;;5069056;28;20093;-70
2021/12/31 01:49:41;;;;;;;15.02;10.02;;;11.30;99.90;;;;;;5068347;28;20032;-69
2021/12/31 01:52:08;;;;;;;15.52;10.65;;;11.10;99.90;;;;;;5068756;28;20032;-69
2021/12/31 01:54:35;;;;;;;12.25;9.57;;;11.00;99.90;;;;;;5069309;28;20025;-67
2021/12/31 01:57:03;;;;;;;11.43;8.40;;;10.80;99.90;;;;;;5053305;28;20048;-66
2021/12/31 01:59:30;;;;;;;14.05;8.70;;;10.90;99.90;;;;;;5069932;28;20053;-66
2021/12/31 02:01:56;;;;;;;11.13;8.13;;;10.80;99.90;;;;;;5068776;28;20039;-66
2021/12/31 02:04:22;;;;;;;12.80;8.43;;;10.80;99.90;;;;;;5069070;28;20025;-67
2021/12/31 02:06:48;;;;;;;13.10;8.90;;;10.90;99.90;;;;;;5068873;28;20136;-67
2021/12/31 02:09:14;;;;;;;13.23;7.60;;;10.90;99.90;;;;;;5070709;28;20372;-67
2021/12/31 02:11:40;;;;;;;10.38;7.40;;;10.90;99.90;;;;;;5071240;28;20119;-67
2021/12/31 02:14:07;;;;;;;12.48;7.60;;;11.00;99.90;;;;;;5068893;28;20040;-67
2021/12/31 02:16:33;;;;;;;11.52;8.15;;;11.00;99.90;;;;;;5069002;28;20389;-67
2021/12/31 02:19:09;;;;;;;12.35;7.20;;;11.00;99.90;;;;;;5069305;28;20029;-66
2021/12/31 02:21:35;;;;;;;11.95;8.02;;;11.00;99.90;;;;;;5069100;28;20033;-66
2021/12/31 02:24:05;;;;;;;11.52;8.00;;;11.10;99.90;;;;;;5071483;28;20107;-67
2021/12/31 02:26:31;;;;;;;10.73;7.60;;;11.00;99.90;;;;;;5069013;28;20023;-66
2021/12/31 02:28:57;;;;;;;12.40;8.05;;;11.10;99.90;;;;;;5050060;28;20448;-67
2021/12/31 02:31:23;;;;;;;13.30;8.48;;;11.10;99.90;;;;;;5069142;28;20548;-67
2021/12/31 02:33:50;;;;;;;12.10;8.63;;;11.10;99.90;;;;;;5068826;28;20064;-67
2021/12/31 02:36:16;;;;;;;11.82;7.72;;;11.00;99.90;;;;;;5070265;28;20032;-67
2021/12/31 02:38:44;;;;;;;13.52;7.85;;;11.00;99.90;;;;;;5070919;28;20103;-67
2021/12/31 02:41:10;;;;;;;11.10;7.22;;;11.00;99.90;;;;;;5068497;28;20037;-66
2021/12/31 02:43:38;;;;;;;12.30;7.70;;;10.90;99.90;;;;;;5069297;28;20028;-67
2021/12/31 02:46:04;;;;;;;12.55;7.60;;;10.90;99.90;;;;;;5048727;28;20029;-67
2021/12/31 02:48:29;;;;;;;10.85;8.55;;;10.90;99.90;;;;;;5068775;28;20062;-67
2021/12/31 02:50:58;;;;;;;11.48;6.95;;;10.80;99.90;;;;;;5072050;28;20107;-66
2021/12/31 02:53:46;;;;;;;10.70;7.18;;;10.90;99.90;;;;;;5069507;28;20028;-66
2021/12/31 02:56:13;;;;;;;13.32;6.85;;;10.90;99.90;;;;;;5068684;28;20085;-69
2021/12/31 02:58:40;;;;;;;14.25;6.93;;;11.00;99.90;;;;;;5068829;28;20107;-69
2021/12/31 03:01:07;;;;;;;10.70;6.70;;;11.00;99.90;;;;;;5068578;28;20079;-69
2021/12/31 03:03:35;;;;;;;10.02;7.00;;;11.00;99.90;;;;;;5068923;28;20025;-70
2021/12/31 03:06:01;;;;;;;10.07;7.03;;;10.90;99.90;;;;;;5071278;28;20024;-69
2021/12/31 03:08:33;;;;;;;10.65;7.10;;;10.90;99.90;;;;;;5059691;28;20028;-70
2021/12/31 03:11:02;;;;;;;10.60;6.53;;;10.90;99.90;;;;;;5072140;28;20021;-69
2021/12/31 03:13:29;;;;;;;9.32;7.38;;;10.90;99.90;;;;;;5072232;28;20501;-70
2021/12/31 03:15:55;;;;;;;11.13;7.10;;;10.90;99.90;;;;;;5072274;28;20031;-69
2021/12/31 03:18:22;;;;;;;10.90;7.30;;;10.90;99.90;;;;;;5073368;28;20040;-69
2021/12/31 03:21:05;;;;;;;10.80;6.93;;;10.80;99.90;;;;;;5075024;28;20498;-69
2021/12/31 03:23:32;;;;;;;11.70;7.10;;;10.80;99.90;;;;;;5071221;28;20417;-70
2021/12/31 03:25:58;;;;;;;11.45;8.30;;;10.70;99.90;;;;;;5072055;28;20079;-69
2021/12/31 03:28:24;;;;;;;12.25;7.25;;;10.70;99.90;;;;;;5072163;28;20024;-70
2021/12/31 03:30:50;;;;;;;10.00;6.68;;;10.70;99.90;;;;;;5070557;28;20029;-69
2021/12/31 03:33:16;;;;;;;12.40;8.05;;;10.60;99.90;;;;;;5073310;28;20074;-70
2021/12/31 03:35:43;;;;;;;11.68;8.60;;;10.70;99.90;;;;;;5071331;28;20036;-69
2021/12/31 03:38:09;;;;;;;14.85;9.65;;;10.70;99.90;;;;;;5069039;28;20132;-69
2021/12/31 03:40:34;;;;;;;11.90;8.25;;;10.60;99.90;;;;;;5069252;28;20056;-70
2021/12/31 03:43:00;;;;;;;11.45;7.65;;;10.60;99.90;;;;;;5069064;28;20458;-69
2021/12/31 03:45:26;;;;;;;9.88;7.18;;;10.50;99.90;;;;;;5073334;28;20040;-69
2021/12/31 03:47:52;;;;;;;12.90;7.93;;;10.50;99.90;;;;;;5071302;28;20087;-69
2021/12/31 03:50:18;;;;;;;12.73;8.55;;;10.40;99.90;;;;;;5054211;28;20186;-69
2021/12/31 03:52:44;;;;;;;11.50;8.23;;;10.30;99.90;;;;;;5053834;28;20119;-70
2021/12/31 03:55:10;;;;;;;10.77;8.00;;;10.20;99.90;;;;;;5068009;28;20029;-67
2021/12/31 03:57:37;;;;;;;13.00;9.13;;;10.20;99.90;;;;;;5072150;28;20045;-67
2021/12/31 04:00:05;;;;;;;13.32;8.98;;;10.30;99.90;;;;;;5073537;28;20135;-67
2021/12/31 04:02:31;;;;;;;12.73;9.18;;;10.20;99.90;;;;;;5072431;28;20085;-67
2021/12/31 04:04:57;;;;;;;11.85;7.43;;;10.20;99.90;;;;;;5071323;28;20608;-67
2021/12/31 04:07:23;;;;;;;10.38;7.95;;;10.20;99.90;;;;;;5070958;28;20477;-67
2021/12/31 04:09:49;;;;;;;11.20;7.88;;;10.20;99.90;;;;;;5071596;28;20020;-68
2021/12/31 04:12:16;;;;;;;11.02;7.70;;;10.20;99.90;;;;;;5047128;28;20092;-67
2021/12/31 04:14:42;;;;;;;10.18;7.32;;;10.20;99.90;;;;;;5073025;28;20056;-67
2021/12/31 04:17:08;;;;;;;10.27;7.47;;;10.20;99.90;;;;;;5070634;28;20043;-67
2021/12/31 04:19:33;;;;;;;10.50;7.40;;;10.20;99.90;;;;;;5068816;28;20024;-67
2021/12/31 04:21:59;;;;;;;10.60;7.13;;;10.30;99.90;;;;;;5068857;28;20092;-67
2021/12/31 04:24:50;;;;;;;11.45;7.78;;;10.30;99.90;;;;;;5066546;28;20033;-68
2021/12/31 04:27:13;;;;;;;9.50;6.85;;;10.30;99.90;;;;;;5071487;28;20035;-67
2021/12/31 04:29:39;;;;;;;11.50;7.13;;;10.20;99.90;;;;;;5070521;28;20036;-67
2021/12/31 04:32:06;;;;;;;10.27;7.10;;;10.20;99.90;;;;;;5068556;28;20712;-67
2021/12/31 04:34:32;;;;;;;12.75;7.38;;;10.20;99.90;;;;;;5068837;28;20047;-67
2021/12/31 04:36:58;;;;;;;11.80;6.93;;;10.20;99.90;;;;;;5068630;28;20033;-67
2021/12/31 04:39:24;;;;;;;11.30;7.38;;;10.20;99.90;;;;;;5073058;28;20478;-67
2021/12/31 04:41:50;;;;;;;10.43;6.97;;;10.20;99.90;;;;;;5070141;28;20057;-67
2021/12/31 04:44:16;;;;;;;9.82;6.63;;;10.20;99.90;;;;;;5068576;28;20506;-67
2021/12/31 04:46:42;;;;;;;12.23;6.63;;;10.20;99.90;;;;;;5068387;28;20397;-67
2021/12/31 04:49:07;;;;;;;9.20;6.25;;;10.20;99.90;;;;;;5068256;28;20028;-67
2021/12/31 04:51:34;;;;;;;10.18;6.50;;;10.20;99.90;;;;;;5072154;28;20528;-67
2021/12/31 04:53:59;;;;;;;8.75;6.32;;;10.10;99.90;;;;;;5070028;28;20478;-67
2021/12/31 04:56:26;;;;;;;9.73;6.28;;;10.10;99.90;;;;;;5069302;28;20086;-69
2021/12/31 04:58:51;;;;;;;9.38;6.15;;;10.00;99.90;;;;;;5068216;28;20029;-69
2021/12/31 05:01:21;;;;;;;9.10;6.18;;;10.00;99.90;;;;;;5068046;28;20028;-69
2021/12/31 05:03:47;;;;;;;9.35;6.03;;;10.00;99.90;;;;;;5070189;28;20434;-69
2021/12/31 05:06:13;;;;;;;8.98;5.85;;;10.00;99.90;;;;;;5071219;28;20118;-70
2021/12/31 05:08:39;;;;;;;8.40;5.85;;;10.00;99.90;;;;;;5069183;28;20025;-69
2021/12/31 05:11:04;;;;;;;9.55;6.78;;;10.00;99.90;;;;;;5068003;28;20041;-69
2021/12/31 05:13:30;;;;;;;9.57;6.38;;;10.00;99.90;;;;;;5067819;28;20032;-69
2021/12/31 05:16:01;;;;;;;9.90;6.32;;;10.00;99.90;;;;;;5068303;28;20029;-69
2021/12/31 05:18:27;;;;;;;10.23;6.82;;;10.00;99.90;;;;;;5071162;28;20036;-69
2021/12/31 05:20:53;;;;;;;15.02;7.60;;;10.00;99.90;;;;;;5069339;28;20025;-70
2021/12/31 05:23:19;;;;;;;12.35;8.02;;;10.00;99.90;;;;;;5052653;28;20041;-69
2021/12/31 05:25:44;;;;;;;9.48;7.20;;;9.90;99.90;;;;;;5070360;28;20035;-69
2021/12/31 05:28:10;;;;;;;12.68;7.10;;;9.80;99.90;;;;;;5070206;28;20055;-69
2021/12/31 05:30:36;;;;;;;10.85;7.65;;;9.70;99.90;;;;;;5071640;28;20028;-70
2021/12/31 05:33:02;;;;;;;14.63;7.55;;;9.60;99.90;;;;;;5069888;28;20033;-70
2021/12/31 05:35:28;;;;;;;11.00;6.95;;;9.60;99.90;;;;;;5069989;28;20121;-69
2021/12/31 05:37:53;;;;;;;9.65;7.22;;;9.60;99.90;;;;;;5069261;28;20068;-69
2021/12/31 05:40:19;;;;;;;10.32;6.85;;;9.60;99.90;;;;;;5068961;28;20033;-69
2021/12/31 05:42:45;;;;;;;11.27;6.50;;;9.50;99.90;;;;;;5071259;28;20490;-69
2021/12/31 05:45:11;;;;;;;11.85;6.55;;;9.50;99.90;;;;;;5069406;28;20039;-69
2021/12/31 05:47:38;;;;;;;10.52;6.22;;;9.70;99.90;;;;;;5070420;28;20028;-70
2021/12/31 05:50:07;;;;;;;12.30;6.50;;;9.70;99.90;;;;;;5068593;28;20032;-69
2021/12/31 05:52:34;;;;;;;10.23;5.85;;;9.70;99.90;;;;;;5068416;28;20025;-69
2021/12/31 05:54:59;;;;;;;10.25;6.25;;;9.80;99.90;;;;;;5071051;28;20056;-66
2021/12/31 05:57:25;;;;;;;9.48;5.80;;;9.80;99.90;;;;;;5068489;28;20082;-67
2021/12/31 05:59:51;;;;;;;10.38;6.32;;;9.80;99.90;;;;;;5070047;28;20103;-67
2021/12/31 06:02:17;;;;;;;10.52;6.50;;;9.80;99.90;;;;;;5068429;28;20028;-66
2021/12/31 06:04:42;;;;;;;11.05;7.90;;;9.90;99.90;;;;;;5068069;28;20093;-67
2021/12/31 06:07:08;;;;;;;10.23;6.70;;;10.20;99.90;;;;;;5068921;28;20028;-67
2021/12/31 06:09:34;;;;;;;10.93;6.90;;;10.40;99.90;;;;;;5069327;28;20032;-66
2021/12/31 06:12:01;;;;;;;13.45;7.15;;;10.50;99.90;;;;;;5069325;28;20021;-67
2021/12/31 06:14:27;;;;;;;9.70;6.35;;;10.50;99.90;;;;;;5068179;28;20060;-66
2021/12/31 06:16:53;;;;;;;10.52;6.82;;;10.60;99.90;;;;;;5067503;28;20075;-66
2021/12/31 06:19:18;;;;;;;10.10;7.07;;;10.60;99.90;;;;;;5067521;28;20041;-66
2021/12/31 06:21:46;;;;;;;12.73;6.85;;;10.50;99.90;;;;;;5070258;28;20024;-66
2021/12/31 06:24:12;;;;;;;12.52;6.55;;;10.50;99.90;;;;;;5068023;28;20024;-67
2021/12/31 06:26:38;;;;;;;10.30;7.10;;;10.60;99.90;;;;;;5050723;28;20101;-67
2021/12/31 06:29:04;;;;;;;10.38;6.97;;;10.60;99.90;;;;;;5066984;28;20099;-67
2021/12/31 06:31:30;;;;;;;11.43;7.07;;;10.60;99.90;;;;;;5067119;28;20471;-67
2021/12/31 06:33:56;;;;;;;15.25;7.07;;;10.60;99.90;;;;;;5069737;28;20031;-67
2021/12/31 06:36:22;;;;;;;13.07;7.57;;;10.40;99.90;;;;;;5066679;28;20021;-67
2021/12/31 06:38:52;;;;;;;12.32;7.15;;;10.20;99.90;;;;;;5069251;28;20062;-67
2021/12/31 06:41:17;;;;;;;10.80;7.03;;;10.10;99.90;;;;;;5066205;28;20099;-67
2021/12/31 06:43:44;;;;;;;11.57;7.03;;;9.90;99.90;;;;;;5065748;28;20186;-66
2021/12/31 06:46:09;;;;;;;10.82;6.43;;;9.70;99.90;;;;;;5071974;28;20044;-66
2021/12/31 06:48:35;;;;;;;11.55;6.45;;;9.70;99.90;;;;;;5073004;28;20027;-66
2021/12/31 06:51:01;;;;;;;12.60;6.80;;;9.70;99.90;;;;;;5038606;28;20036;-66
2021/12/31 06:53:27;;;;;;;11.15;7.25;;;9.70;99.90;;;;;;5070707;28;20024;-67
2021/12/31 06:55:52;;;;;;;12.20;6.80;;;9.70;99.90;;;;;;5069808;28;20074;-67
2021/12/31 06:58:18;;;;;;;21.15;10.77;;;9.70;99.90;;;;;;5070362;28;20050;-66
2021/12/31 07:00:44;;;;;;;20.88;10.88;;;9.80;99.90;;;;;;5071991;28;20048;-67
2021/12/31 07:03:13;;;;;;;13.57;7.78;;;10.00;99.90;;;;;;5071540;28;20050;-67
2021/12/31 07:05:43;;;;;;;11.68;7.82;;;10.00;99.90;;;;;;5071142;28;20060;-67
2021/12/31 07:08:10;;;;;;;9.60;7.55;;;10.00;99.90;;;;;;5051304;28;20071;-66
2021/12/31 07:10:36;;;;;;;11.38;7.65;;;9.80;99.90;;;;;;5068837;28;20032;-67
2021/12/31 07:13:05;;;;;;;11.68;7.45;;;9.60;99.90;;;;;;5072211;28;20028;-66
2021/12/31 07:15:31;;;;;;;25.13;9.05;;;9.50;99.90;;;;;;5069724;28;20056;-66
2021/12/31 07:17:57;;;;;;;30.92;9.30;;;9.50;99.90;;;;;;5071802;28;20034;-67
2021/12/31 07:20:23;;;;;;;32.60;9.18;;;9.50;99.90;;;;;;5072812;28;20468;-68
2021/12/31 07:22:49;;;;;;;34.42;10.32;;;9.40;99.90;;;;;;5071991;28;20055;-68
2021/12/31 07:25:15;;;;;;;38.40;10.68;;;9.30;99.90;;;;;;5072056;28;20109;-65
2021/12/31 07:27:40;;;;;;;42.58;12.68;;;9.30;99.90;;;;;;5072248;28;20024;-66
2021/12/31 07:30:07;;;;;;;40.63;12.63;;;9.30;99.90;;;;;;5056843;28;20033;-66
2021/12/31 07:32:37;;;;;;;39.35;12.93;;;9.30;99.90;;;;;;5073528;28;20025;-66
2021/12/31 07:35:04;;;;;;;48.30;12.57;;;9.40;99.90;;;;;;5071957;28;20029;-66
2021/12/31 07:37:29;;;;;;;126.45;16.77;;;9.30;99.90;;;;;;5050073;28;20062;-66
2021/12/31 07:40:01;;;;;;;304.13;24.20;;;9.40;99.90;;;;;;5063642;28;20024;-66
2021/12/31 07:42:27;;;;;;;103.63;16.00;;;9.40;99.90;;;;;;5051785;28;20083;-66
2021/12/31 07:44:52;;;;;;;45.90;12.80;;;9.40;99.90;;;;;;5075262;28;20032;-66
2021/12/31 07:47:19;;;;;;;31.90;12.05;;;9.30;99.90;;;;;;5071825;28;20028;-66
2021/12/31 07:49:44;;;;;;;25.25;10.48;;;9.30;99.90;;;;;;5071731;28;20367;-66
2021/12/31 07:52:10;;;;;;;24.23;10.02;;;9.20;99.90;;;;;;5071708;28;20050;-66
2021/12/31 07:54:36;;;;;;;16.55;8.93;;;9.20;99.90;;;;;;5052047;28;20416;-72
2021/12/31 07:57:02;;;;;;;24.33;9.60;;;9.40;99.90;;;;;;5072719;28;20128;-69
2021/12/31 07:59:27;;;;;;;15.77;8.45;;;9.70;99.90;;;;;;5072172;28;20052;-69
2021/12/31 08:01:53;;;;;;;20.40;9.32;;;9.90;99.90;;;;;;5071139;28;20032;-71
2021/12/31 08:04:19;;;;;;;14.18;8.50;;;10.00;99.90;;;;;;5070979;28;20047;-71
2021/12/31 08:06:44;;;;;;;19.85;9.07;;;10.30;99.90;;;;;;5070782;28;20099;-71
2021/12/31 08:09:10;;;;;;;16.52;9.52;;;10.50;99.90;;;;;;5073473;28;20494;-71
2021/12/31 08:11:37;;;;;;;19.30;11.32;;;10.60;99.90;;;;;;5071593;28;20024;-70
2021/12/31 08:14:03;;;;;;;22.10;12.70;;;10.50;99.90;;;;;;5070384;28;20044;-70
2021/12/31 08:16:29;;;;;;;30.83;13.73;;;10.30;99.90;;;;;;5069976;28;20075;-70
2021/12/31 08:18:55;;;;;;;32.72;16.05;;;10.30;99.90;;;;;;5070959;28;20064;-69
2021/12/31 08:21:21;;;;;;;36.25;17.08;;;10.30;99.90;;;;;;5072030;28;20025;-70
2021/12/31 08:23:47;;;;;;;32.63;17.58;;;10.30;99.90;;;;;;5074157;28;20107;-70
2021/12/31 08:26:12;;;;;;;34.35;18.08;;;10.40;99.90;;;;;;5071100;28;20610;-69
2021/12/31 08:28:38;;;;;;;30.98;16.85;;;10.40;99.90;;;;;;5070559;28;20020;-69
2021/12/31 08:31:04;;;;;;;26.60;15.70;;;10.50;99.90;;;;;;5070874;28;20028;-69
2021/12/31 08:33:30;;;;;;;25.08;14.88;;;10.60;99.90;;;;;;5071164;28;20078;-68
2021/12/31 08:35:55;;;;;;;24.05;14.07;;;10.70;99.90;;;;;;5073817;28;20099;-67
2021/12/31 08:38:22;;;;;;;24.23;13.40;;;10.80;99.90;;;;;;5071185;28;20039;-67
2021/12/31 08:40:48;;;;;;;24.42;11.30;;;10.90;99.90;;;;;;5069794;28;20501;-68
2021/12/31 08:43:14;;;;;;;32.83;11.55;;;11.00;99.90;;;;;;5070104;28;20170;-67
2021/12/31 08:45:40;;;;;;;23.17;12.30;;;11.10;99.90;;;;;;5070356;28;20064;-67
2021/12/31 08:48:06;;;;;;;24.90;11.40;;;11.10;99.90;;;;;;5053965;28;20044;-67
2021/12/31 08:50:32;;;;;;;31.88;12.25;;;11.10;99.90;;;;;;5066190;28;20032;-67
2021/12/31 08:52:58;;;;;;;25.75;11.05;;;11.10;99.90;;;;;;5067670;28;20033;-67
2021/12/31 08:55:25;;;;;;;28.58;11.95;;;11.20;99.90;;;;;;5049410;28;20501;-68
2021/12/31 08:57:51;;;;;;;36.50;11.98;;;11.30;99.90;;;;;;5069433;28;20034;-70
2021/12/31 09:00:17;;;;;;;23.60;11.80;;;11.30;99.90;;;;;;5070286;28;20488;-69
2021/12/31 09:02:45;;;;;;;27.20;12.30;;;11.50;99.90;;;;;;5059021;28;20054;-69
2021/12/31 09:05:12;;;;;;;24.77;12.30;;;11.60;99.90;;;;;;5059969;28;20033;-69
2021/12/31 09:07:38;;;;;;;39.40;11.27;;;11.60;99.90;;;;;;5062907;28;20017;-70
2021/12/31 09:10:05;;;;;;;23.40;10.88;;;11.60;99.90;;;;;;5063341;28;20055;-68
2021/12/31 09:12:31;;;;;;;30.35;12.18;;;11.70;99.90;;;;;;5063956;28;20466;-67
2021/12/31 09:14:56;;;;;;;30.52;11.50;;;11.70;99.90;;;;;;5034321;28;20035;-69
2021/12/31 09:17:22;;;;;;;34.55;12.13;;;11.70;99.90;;;;;;5060886;28;20039;-68
2021/12/31 09:19:49;;;;;;;34.90;13.05;;;11.70;99.90;;;;;;5061529;28;20478;-68
2021/12/31 09:22:16;;;;;;;30.65;12.48;;;11.80;99.90;;;;;;5062781;28;20025;-68
2021/12/31 09:24:42;;;;;;;26.33;12.02;;;11.70;99.90;;;;;;5063122;28;20486;-69
2021/12/31 09:27:09;;;;;;;28.67;12.10;;;11.70;99.90;;;;;;5066176;28;20029;-69
2021/12/31 09:29:34;;;;;;;32.05;13.70;;;11.70;99.90;;;;;;5065770;28;20060;-69
2021/12/31 09:32:00;;;;;;;31.92;14.60;;;11.70;99.90;;;;;;5046044;28;20056;-70
2021/12/31 09:34:26;;;;;;;32.40;15.48;;;11.80;99.90;;;;;;5065528;28;20032;-69
2021/12/31 09:36:52;;;;;;;34.67;14.27;;;11.80;99.90;;;;;;5046615;28;20391;-70
2021/12/31 09:39:17;;;;;;;30.05;13.80;;;11.80;99.90;;;;;;5066204;28;20095;-71
2021/12/31 09:41:44;;;;;;;31.15;13.60;;;11.80;99.90;;;;;;5063471;28;20033;-70
2021/12/31 09:44:14;;;;;;;32.03;13.27;;;11.80;99.90;;;;;;5047396;28;20580;-70
2021/12/31 09:46:40;;;;;;;30.45;13.52;;;11.80;99.90;;;;;;5064649;28;20069;-70
2021/12/31 09:49:06;;;;;;;34.13;15.18;;;11.80;99.90;;;;;;5060720;28;20075;-70
2021/12/31 09:51:33;;;;;;;34.45;13.07;;;11.80;99.90;;;;;;5040346;28;20064;-70
2021/12/31 09:54:00;;;;;;;25.50;12.23;;;11.70;99.90;;;;;;5066073;28;20541;-70
2021/12/31 09:56:27;;;;;;;29.02;12.27;;;11.70;99.90;;;;;;5065482;28;20478;-68
2021/12/31 09:58:53;;;;;;;27.50;12.82;;;11.70;99.90;;;;;;5053948;28;20037;-71
2021/12/31 10:01:18;;;;;;;26.27;12.80;;;11.70;99.90;;;;;;5065023;28;20074;-71
2021/12/31 10:03:57;;;;;;;27.75;11.75;;;11.70;99.90;;;;;;5061506;28;20051;-69
2021/12/31 10:06:26;;;;;;;24.23;10.95;;;11.80;99.90;;;;;;5057691;28;20098;-75
2021/12/31 10:08:56;;;;;;;39.38;11.75;;;11.80;99.90;;;;;;5064215;28;20032;-69
2021/12/31 10:11:26;;;;;;;30.52;13.43;;;11.90;99.90;;;;;;5068378;28;20112;-70
2021/12/31 10:13:51;;;;;;;28.20;12.80;;;11.90;99.90;;;;;;5052489;28;20036;-70
2021/12/31 10:16:40;;;;;;;30.27;13.70;;;12.00;99.90;;;;;;5057768;28;20036;-70
2021/12/31 10:19:18;;;;;;;28.63;13.35;;;12.10;99.90;;;;;;5066443;28;20123;-70
2021/12/31 10:21:53;;;;;;;33.95;15.30;;;12.10;99.90;;;;;;5067807;28;20115;-70
2021/12/31 10:24:32;;;;;;;28.95;13.32;;;12.20;99.90;;;;;;5061975;28;20036;-70
2021/12/31 10:27:14;;;;;;;25.55;13.65;;;12.30;99.90;;;;;;5069201;28;20522;-70
2021/12/31 10:29:56;;;;;;;27.10;13.05;;;12.30;99.90;;;;;;5070262;28;20103;-69
2021/12/31 10:32:25;;;;;;;25.08;13.35;;;12.30;99.90;;;;;;5067781;28;20064;-70
2021/12/31 10:34:51;;;;;;;26.77;13.40;;;12.30;99.90;;;;;;5067584;28;20036;-70
2021/12/31 10:37:24;;;;;;;24.90;13.82;;;12.30;99.90;;;;;;5065314;28;20487;-70
2021/12/31 10:39:56;;;;;;;26.60;13.32;;;12.30;99.90;;;;;;5068245;28;20028;-70
2021/12/31 10:42:32;;;;;;;27.67;13.43;;;12.40;99.90;;;;;;5061332;28;20028;-70
2021/12/31 10:45:00;;;;;;;23.73;13.02;;;12.50;99.90;;;;;;5068805;28;20020;-70
2021/12/31 10:47:32;;;;;;;27.63;13.85;;;12.60;99.90;;;;;;5069143;28;20780;-70
2021/12/31 10:50:00;;;;;;;24.52;12.98;;;12.60;99.90;;;;;;5067644;28;20052;-70
2021/12/31 10:53:14;;;;;;;26.67;14.50;;;12.60;99.90;;;;;;5067752;28;20035;-70
2021/12/31 10:55:27;;;;;;;23.58;12.85;;;12.60;99.90;;;;;;5059628;28;20048;-70
2021/12/31 10:57:57;;;;;;;26.27;14.75;;;12.70;99.90;;;;;;5067373;28;20032;-70
2021/12/31 11:00:25;;;;;;;28.88;16.35;;;12.90;99.90;;;;;;5068382;28;20045;-69
2021/12/31 11:02:51;;;;;;;27.15;14.27;;;13.00;99.90;;;;;;5070970;28;20028;-68
2021/12/31 11:05:19;;;;;;;28.77;15.18;;;13.10;99.90;;;;;;5063743;28;20033;-68
2021/12/31 11:07:45;;;;;;;28.15;15.95;;;13.10;99.90;;;;;;5064553;28;20020;-69
2021/12/31 11:10:11;;;;;;;31.20;16.20;;;13.10;99.90;;;;;;5064445;28;20033;-69
2021/12/31 11:12:37;;;;;;;36.80;17.50;;;13.10;99.90;;;;;;5068639;28;20499;-68
2021/12/31 11:15:06;;;;;;;35.33;19.27;;;13.10;99.90;;;;;;5066871;28;20032;-68
2021/12/31 11:17:32;;;;;;;30.60;16.73;;;13.20;99.90;;;;;;5063460;28;20047;-69
2021/12/31 11:19:59;;;;;;;33.17;18.23;;;13.20;99.90;;;;;;5068306;28;20021;-70
2021/12/31 11:22:28;;;;;;;31.58;17.80;;;13.20;99.90;;;;;;5067468;28;20111;-70
2021/12/31 11:25:14;;;;;;;28.92;15.48;;;13.30;99.90;;;;;;5067853;28;20039;-70
2021/12/31 11:27:44;;;;;;;27.55;15.40;;;13.40;99.90;;;;;;5060525;28;20043;-67
2021/12/31 11:30:39;;;;;;;30.35;16.33;;;13.40;99.90;;;;;;5069692;28;20029;-71
2021/12/31 11:33:08;;;;;;;28.08;15.27;;;13.40;99.90;;;;;;5073551;28;20460;-73
2021/12/31 11:35:38;;;;;;;28.55;15.98;;;13.30;99.90;;;;;;5069853;28;20543;-73
2021/12/31 11:38:14;;;;;;;31.77;16.50;;;13.30;99.90;;;;;;5069745;28;20047;-72
2021/12/31 11:40:49;;;;;;;31.58;17.42;;;13.30;99.90;;;;;;5069604;28;20517;-71
2021/12/31 11:43:25;;;;;;;33.42;18.30;;;13.30;99.90;;;;;;5070376;28;20020;-71
2021/12/31 11:46:12;;;;;;;38.67;19.17;;;13.30;99.90;;;;;;5070636;28;20123;-71
2021/12/31 11:48:50;;;;;;;46.50;23.60;;;13.30;99.90;;;;;;5072194;28;20063;-71
2021/12/31 11:51:34;;;;;;;43.30;21.48;;;13.30;99.90;;;;;;5071333;28;20515;-71
2021/12/31 11:54:00;;;;;;;45.03;24.60;;;13.30;99.90;;;;;;5068992;28;20104;-70
2021/12/31 11:56:45;;;;;;;45.58;23.08;;;13.30;99.90;;;;;;5068354;28;20698;-68
2021/12/31 11:59:14;;;;;;;41.28;23.38;;;13.30;99.90;;;;;;5066400;28;20536;-67
2021/12/31 12:02:04;;;;;;;46.45;23.63;;;13.30;99.90;;;;;;5067691;28;20029;-67
2021/12/31 12:04:34;;;;;;;48.63;24.30;;;13.20;99.90;;;;;;5054556;28;20032;-67
2021/12/31 12:07:04;;;;;;;44.50;23.50;;;13.30;99.90;;;;;;5051385;28;20047;-68
2021/12/31 12:09:36;;;;;;;43.35;22.70;;;13.40;99.90;;;;;;5071746;28;20039;-67
2021/12/31 12:12:03;;;;;;;44.13;23.10;;;13.40;99.90;;;;;;5069450;28;20028;-68
2021/12/31 12:14:45;;;;;;;40.38;22.55;;;13.40;99.90;;;;;;5050494;28;20040;-68
2021/12/31 12:17:16;;;;;;;39.67;22.55;;;13.40;99.90;;;;;;5067979;28;20039;-68
2021/12/31 12:19:49;;;;;;;42.45;22.83;;;13.50;99.90;;;;;;5067032;28;20032;-68
2021/12/31 12:22:40;;;;;;;41.90;21.80;;;13.50;99.90;;;;;;5067854;28;20479;-69
2021/12/31 12:25:15;;;;;;;38.65;20.73;;;13.50;99.90;;;;;;5067643;28;20074;-69
2021/12/31 12:27:41;;;;;;;35.20;20.90;;;13.50;99.90;;;;;;5062276;28;20103;-69
2021/12/31 12:30:11;;;;;;;41.53;20.13;;;13.40;99.90;;;;;;5052147;28;20038;-68
2021/12/31 12:32:50;;;;;;;40.58;20.48;;;13.40;99.90;;;;;;5068094;28;20032;-68
2021/12/31 12:35:18;;;;;;;36.67;20.85;;;13.40;99.90;;;;;;5066310;28;20031;-67
2021/12/31 12:38:12;;;;;;;32.20;18.60;;;13.50;99.90;;;;;;5067163;28;20071;-68
2021/12/31 12:40:59;;;;;;;29.85;16.83;;;13.50;99.90;;;;;;5069739;28;20066;-67
2021/12/31 12:43:27;;;;;;;32.40;17.98;;;13.60;99.90;;;;;;5070282;28;20090;-70